Rechercher aéroport 
image banner adimage banner adimage banner ad
image banner ad

8CA7 - Platform Henry

Situé à Carpinteria, United States

ICAO - 8CA7, IATA -

Données fournies par Airmate  

Information générale

Coordonnées: N34°19'59" W119°33'40"
Élévation : 111 feet MSL.
Variation magnétique : 14° East
Voir autres Aéroports à California

Données opérationnelles

Special qualification required
Heure actuelle UTC:
Heure actuelle locale:
Météo à : KSBA - Santa Barbara Muni ( 28 km )
METAR: KSBA 262153Z 26006KT 10SM OVC110 19/16 A2994 RMK AO2 RAB32E41 SLP139 P0000 T01940156 $
TAF: KSBA 261740Z 2618/2718 00000KT P6SM VCSH FEW002 SCT010 BKN120 FM262000 23008KT P6SM VCSH BKN120 FM270100 VRB03KT P6SM OVC100 FM270600 VRB03KT P6SM OVC006
Voir NOTAMs / SUP AIP / TFR affectant cet aéroport [VIEW]
Fréquences de communication: [VIEW]

Pistes:

Coordonnées de l'aéroport

Adresse: Carpinteria United States

Vue satellite de 8CA7